createdAt,value
2023-05-19T00:00:39.774Z,11.68
2023-05-19T00:02:05.989Z,11.95
2023-05-19T00:03:29.239Z,13.95
2023-05-19T00:04:52.008Z,11.90
2023-05-19T00:06:13.898Z,9.88
2023-05-19T00:09:04.174Z,10.40
2023-05-19T00:10:30.584Z,12.63
2023-05-19T00:11:59.676Z,9.10
2023-05-19T00:13:23.304Z,11.45
2023-05-19T00:14:45.006Z,8.90
2023-05-19T00:16:08.139Z,11.68
2023-05-19T00:17:34.525Z,10.25
2023-05-19T00:18:59.746Z,9.75
2023-05-19T00:20:25.848Z,14.35
2023-05-19T00:21:47.185Z,19.55
2023-05-19T00:23:09.731Z,11.13
2023-05-19T00:24:31.929Z,12.50
2023-05-19T00:25:54.186Z,9.52
2023-05-19T00:27:16.623Z,14.23
2023-05-19T00:28:38.067Z,10.25
2023-05-19T00:31:24.491Z,11.55
2023-05-19T00:32:48.001Z,9.95
2023-05-19T00:34:10.466Z,10.80
2023-05-19T00:35:31.630Z,14.55
2023-05-19T00:36:53.902Z,10.05
2023-05-19T00:38:16.917Z,15.75
2023-05-19T00:39:39.006Z,9.90
2023-05-19T00:41:00.495Z,10.38
2023-05-19T00:42:22.983Z,8.38
2023-05-19T00:43:44.384Z,9.98
2023-05-19T00:45:08.097Z,8.52
2023-05-19T00:46:31.085Z,9.25
2023-05-19T00:47:53.963Z,9.88
2023-05-19T00:49:16.089Z,8.95
2023-05-19T00:50:37.332Z,12.00
2023-05-19T00:52:00.990Z,11.48
2023-05-19T00:53:24.848Z,9.23
2023-05-19T00:54:47.744Z,10.32
2023-05-19T00:56:09.031Z,13.95
2023-05-19T00:57:31.359Z,10.75
2023-05-19T00:58:52.444Z,15.02
2023-05-19T01:00:16.426Z,8.85
2023-05-19T01:01:38.803Z,8.18
2023-05-19T01:03:01.933Z,9.18
2023-05-19T01:04:25.732Z,11.77
2023-05-19T01:05:47.722Z,13.25
2023-05-19T01:07:10.598Z,10.02
2023-05-19T01:08:32.833Z,8.05
2023-05-19T01:09:55.073Z,13.43
2023-05-19T01:11:17.298Z,12.68
2023-05-19T01:12:38.712Z,14.13
2023-05-19T01:14:01.013Z,10.75
2023-05-19T01:15:23.073Z,12.80
2023-05-19T01:16:50.044Z,13.30
2023-05-19T01:18:16.842Z,18.05
2023-05-19T01:19:56.445Z,10.00
2023-05-19T01:21:36.615Z,10.13
2023-05-19T01:23:27.752Z,8.82
2023-05-19T01:25:31.831Z,10.73
2023-05-19T01:27:14.776Z,11.00
2023-05-19T01:29:04.431Z,13.65
2023-05-19T01:30:32.420Z,10.25
2023-05-19T01:31:57.004Z,10.23
2023-05-19T01:33:19.389Z,8.82
2023-05-19T01:34:45.588Z,15.52
2023-05-19T01:36:10.353Z,12.88
2023-05-19T01:37:32.310Z,10.88
2023-05-19T01:38:57.714Z,13.43
2023-05-19T01:40:20.134Z,8.98
2023-05-19T01:41:43.645Z,9.63
2023-05-19T01:43:04.988Z,7.85
2023-05-19T01:44:27.365Z,13.88
2023-05-19T01:45:52.810Z,11.50
2023-05-19T01:47:16.426Z,11.77
2023-05-19T01:48:38.620Z,13.27
2023-05-19T01:51:23.127Z,9.43
2023-05-19T01:52:44.146Z,12.25
2023-05-19T01:54:06.083Z,12.32
2023-05-19T01:55:27.378Z,13.13
2023-05-19T01:56:57.344Z,10.32
2023-05-19T01:58:25.162Z,12.90
2023-05-19T01:59:53.637Z,11.07
2023-05-19T02:01:30.400Z,10.50
2023-05-19T02:02:59.821Z,11.25
2023-05-19T02:04:31.573Z,12.68
2023-05-19T02:05:59.591Z,10.57
2023-05-19T02:07:32.785Z,11.93
2023-05-19T02:09:02.255Z,12.13
2023-05-19T02:10:32.014Z,11.00
2023-05-19T02:11:56.380Z,11.63
2023-05-19T02:13:25.879Z,13.45
2023-05-19T02:14:52.296Z,10.43
2023-05-19T02:16:19.028Z,12.82
2023-05-19T02:17:47.991Z,9.10
2023-05-19T02:19:22.275Z,10.68
2023-05-19T02:20:45.233Z,8.52
2023-05-19T02:22:08.582Z,10.07
2023-05-19T02:23:30.561Z,15.00
2023-05-19T02:24:52.148Z,9.50
2023-05-19T02:26:14.475Z,11.90
2023-05-19T02:27:40.257Z,12.15
2023-05-19T02:29:01.719Z,9.77
2023-05-19T02:30:24.384Z,10.80
2023-05-19T02:31:46.632Z,10.02
2023-05-19T02:33:11.539Z,11.63
2023-05-19T02:34:34.111Z,16.83
2023-05-19T02:35:55.293Z,10.38
2023-05-19T02:37:18.884Z,13.07
2023-05-19T02:38:41.488Z,10.68
2023-05-19T02:40:02.664Z,12.00
2023-05-19T02:41:25.077Z,15.60
2023-05-19T02:42:47.336Z,14.55
2023-05-19T02:44:09.007Z,10.75
2023-05-19T02:45:32.172Z,13.95
2023-05-19T02:46:53.400Z,13.20
2023-05-19T02:48:17.910Z,13.27
2023-05-19T02:49:38.952Z,10.57
2023-05-19T02:51:00.855Z,9.70
2023-05-19T02:53:44.172Z,8.82
2023-05-19T02:55:06.153Z,13.68
2023-05-19T02:56:28.315Z,11.93
2023-05-19T02:57:52.633Z,10.18
2023-05-19T02:59:14.026Z,9.27
2023-05-19T03:00:36.085Z,10.80
2023-05-19T03:02:02.132Z,12.80
2023-05-19T03:03:26.233Z,10.43
2023-05-19T03:04:47.471Z,11.88
2023-05-19T03:06:10.004Z,12.80
2023-05-19T03:07:31.335Z,11.07
2023-05-19T03:08:56.114Z,11.20
2023-05-19T03:10:18.623Z,10.82
2023-05-19T03:12:06.733Z,9.30
2023-05-19T03:13:28.883Z,15.55
2023-05-19T03:14:51.479Z,12.43
2023-05-19T03:16:15.577Z,12.25
2023-05-19T03:17:36.744Z,12.43
2023-05-19T03:19:00.841Z,14.10
2023-05-19T03:20:23.419Z,10.75
2023-05-19T03:21:51.451Z,11.73
2023-05-19T03:23:13.617Z,13.00
2023-05-19T03:24:35.286Z,11.55
2023-05-19T03:25:57.965Z,8.80
2023-05-19T03:27:19.360Z,11.43
2023-05-19T03:28:50.928Z,10.30
2023-05-19T03:30:13.547Z,11.95
2023-05-19T03:31:52.221Z,10.93
2023-05-19T03:33:20.412Z,12.60
2023-05-19T03:34:42.960Z,10.15
2023-05-19T03:36:08.148Z,8.95
2023-05-19T03:37:33.794Z,8.98
2023-05-19T03:39:01.289Z,12.88
2023-05-19T03:40:27.377Z,14.20
2023-05-19T03:43:20.642Z,9.93
2023-05-19T03:44:48.835Z,11.63
2023-05-19T03:46:11.405Z,12.32
2023-05-19T03:47:50.650Z,15.13
2023-05-19T03:49:31.896Z,15.13
2023-05-19T03:51:35.010Z,11.52
2023-05-19T03:53:17.693Z,14.05
2023-05-19T03:54:39.854Z,10.68
2023-05-19T03:57:24.161Z,13.48
2023-05-19T03:58:47.137Z,11.30
2023-05-19T04:00:12.424Z,11.48
2023-05-19T04:01:33.586Z,15.25
2023-05-19T04:02:55.898Z,11.20
2023-05-19T04:04:18.397Z,11.88
2023-05-19T04:05:40.301Z,12.63
2023-05-19T04:07:03.663Z,14.53
2023-05-19T04:08:26.238Z,15.00
2023-05-19T04:09:59.518Z,10.07
2023-05-19T04:11:26.961Z,11.40
2023-05-19T04:12:48.521Z,13.48
2023-05-19T04:14:11.708Z,13.15
2023-05-19T04:15:34.257Z,13.43
2023-05-19T04:16:56.572Z,14.80
2023-05-19T04:18:17.777Z,13.30
2023-05-19T04:19:40.390Z,15.95
2023-05-19T04:21:01.913Z,14.45
2023-05-19T04:22:25.375Z,11.18
2023-05-19T04:23:47.467Z,11.68
2023-05-19T04:25:10.332Z,13.48
2023-05-19T04:26:34.652Z,13.95
2023-05-19T04:27:58.029Z,12.63
2023-05-19T04:29:20.707Z,19.05
2023-05-19T04:30:42.659Z,13.25
2023-05-19T04:33:29.978Z,11.68
2023-05-19T04:34:51.906Z,11.80
2023-05-19T04:36:21.564Z,12.02
2023-05-19T04:37:46.692Z,15.50
2023-05-19T04:39:12.287Z,15.63
2023-05-19T04:40:37.287Z,11.27
2023-05-19T04:41:58.604Z,10.52
2023-05-19T04:43:22.407Z,13.23
2023-05-19T04:44:50.128Z,9.77
2023-05-19T04:46:13.912Z,11.43
2023-05-19T04:47:38.420Z,15.05
2023-05-19T04:49:06.969Z,9.82
2023-05-19T04:50:31.318Z,11.10
2023-05-19T04:51:55.501Z,13.45
2023-05-19T04:53:23.097Z,11.48
2023-05-19T04:54:44.428Z,9.25
2023-05-19T04:56:10.054Z,10.18
2023-05-19T04:57:31.963Z,9.77
2023-05-19T04:58:54.166Z,12.52
2023-05-19T05:00:17.823Z,16.77
2023-05-19T05:02:00.314Z,11.45
2023-05-19T05:03:25.385Z,10.18
2023-05-19T05:04:49.388Z,9.00
2023-05-19T05:06:10.639Z,9.02
2023-05-19T05:07:33.669Z,13.13
2023-05-19T05:08:58.192Z,10.80
2023-05-19T05:10:20.888Z,9.40
2023-05-19T05:11:44.461Z,9.43
2023-05-19T05:13:07.025Z,10.55
2023-05-19T05:14:29.719Z,10.73
2023-05-19T05:15:52.459Z,8.15
2023-05-19T05:17:16.253Z,7.68
2023-05-19T05:18:38.806Z,9.95
2023-05-19T05:20:01.844Z,8.07
2023-05-19T05:21:25.006Z,8.88
2023-05-19T05:22:46.599Z,6.57
2023-05-19T05:24:12.560Z,9.57
2023-05-19T05:25:37.672Z,10.10
2023-05-19T05:27:00.283Z,8.18
2023-05-19T05:28:25.025Z,6.70
2023-05-19T05:29:48.525Z,11.52
2023-05-19T05:31:12.450Z,12.88
2023-05-19T05:32:36.273Z,7.88
2023-05-19T05:34:08.172Z,8.50
2023-05-19T05:35:31.037Z,9.48
2023-05-19T05:36:53.832Z,10.45
2023-05-19T05:38:16.605Z,7.88
2023-05-19T05:39:40.527Z,10.60
2023-05-19T05:41:03.381Z,11.88
2023-05-19T05:42:29.744Z,7.72
2023-05-19T05:43:51.401Z,13.15
2023-05-19T05:45:14.100Z,9.35
2023-05-19T05:46:39.156Z,12.13
2023-05-19T05:48:02.188Z,7.20
2023-05-19T05:49:26.687Z,10.35
2023-05-19T05:50:51.260Z,9.50
2023-05-19T05:52:21.924Z,7.72
2023-05-19T05:53:52.869Z,11.30
2023-05-19T05:55:19.088Z,10.68
2023-05-19T05:56:43.273Z,11.65
2023-05-19T05:58:06.487Z,12.05
2023-05-19T05:59:29.799Z,13.43
2023-05-19T06:00:51.987Z,10.82
2023-05-19T06:03:38.203Z,10.25
2023-05-19T06:05:02.739Z,11.40
2023-05-19T06:06:23.938Z,10.05
2023-05-19T06:07:47.667Z,8.77
2023-05-19T06:09:22.110Z,10.50
2023-05-19T06:10:48.717Z,9.60
2023-05-19T06:12:12.408Z,14.02
2023-05-19T06:13:44.340Z,11.02
2023-05-19T06:15:17.330Z,14.85
2023-05-19T06:16:51.504Z,12.48
2023-05-19T06:18:13.973Z,15.93
2023-05-19T06:19:36.156Z,13.75
2023-05-19T06:20:58.302Z,11.98
2023-05-19T06:22:19.427Z,9.98
2023-05-19T06:23:41.967Z,9.88
2023-05-19T06:25:05.873Z,11.77
2023-05-19T06:26:30.978Z,12.10
2023-05-19T06:27:54.800Z,9.98
2023-05-19T06:29:20.551Z,7.88
2023-05-19T06:30:44.365Z,11.45
2023-05-19T06:32:16.888Z,13.38
2023-05-19T06:33:39.149Z,9.18
2023-05-19T06:35:01.633Z,9.35
2023-05-19T06:36:23.884Z,10.13
2023-05-19T06:37:48.414Z,9.60
2023-05-19T06:39:11.053Z,13.38
2023-05-19T06:40:37.129Z,13.55
2023-05-19T06:42:00.878Z,10.70
2023-05-19T06:45:21.938Z,9.40
2023-05-19T06:46:48.101Z,14.13
2023-05-19T06:48:10.836Z,9.68
2023-05-19T06:49:33.600Z,11.15
2023-05-19T06:50:57.467Z,12.07
2023-05-19T06:52:20.202Z,13.40
2023-05-19T06:53:42.618Z,10.88
2023-05-19T06:55:04.632Z,9.82
2023-05-19T06:56:28.010Z,8.20
2023-05-19T06:57:53.046Z,11.48
2023-05-19T06:59:16.375Z,11.68
2023-05-19T07:00:39.897Z,11.38
2023-05-19T07:02:04.923Z,10.38
2023-05-19T07:03:28.571Z,12.30
2023-05-19T07:04:52.840Z,19.13
2023-05-19T07:06:17.760Z,11.88
2023-05-19T07:07:40.057Z,14.15
2023-05-19T07:09:09.836Z,13.68
2023-05-19T07:10:33.865Z,11.65
2023-05-19T07:11:56.766Z,15.63
2023-05-19T07:13:20.695Z,10.60
2023-05-19T07:14:43.523Z,6.63
2023-05-19T07:16:07.150Z,11.15
2023-05-19T07:17:32.256Z,10.45
2023-05-19T07:18:54.533Z,10.63
2023-05-19T07:20:16.816Z,12.70
2023-05-19T07:21:39.184Z,11.80
2023-05-19T07:23:02.822Z,12.80
2023-05-19T07:24:26.173Z,9.50
2023-05-19T07:25:48.631Z,8.15
2023-05-19T07:27:11.333Z,8.93
2023-05-19T07:28:35.822Z,13.57
2023-05-19T07:29:57.723Z,9.27
2023-05-19T07:31:22.778Z,9.27
2023-05-19T07:32:44.942Z,5.78
2023-05-19T07:34:06.985Z,11.02
2023-05-19T07:36:51.640Z,9.23
2023-05-19T07:38:15.514Z,21.50
2023-05-19T07:39:37.862Z,12.85
2023-05-19T07:41:00.513Z,11.63
2023-05-19T07:42:25.712Z,10.10
2023-05-19T07:44:13.502Z,11.13
2023-05-19T07:45:36.013Z,9.90
2023-05-19T07:46:58.220Z,7.95
2023-05-19T07:48:24.792Z,9.73
2023-05-19T07:49:49.075Z,13.93
2023-05-19T07:51:14.719Z,12.30
2023-05-19T07:52:37.316Z,8.30
2023-05-19T07:54:08.521Z,10.60
2023-05-19T07:55:30.539Z,6.65
2023-05-19T07:56:55.672Z,10.77
2023-05-19T07:58:18.063Z,10.60
2023-05-19T07:59:50.787Z,9.23
2023-05-19T08:01:13.023Z,11.48
2023-05-19T08:02:39.764Z,7.88
2023-05-19T08:04:01.823Z,10.57
2023-05-19T08:05:30.677Z,9.55
2023-05-19T08:06:53.292Z,12.05
2023-05-19T08:08:16.997Z,8.23
2023-05-19T08:09:43.420Z,9.00
2023-05-19T08:11:06.807Z,7.35
2023-05-19T08:12:34.312Z,7.80
2023-05-19T08:13:59.151Z,9.93
2023-05-19T08:15:28.581Z,7.57
2023-05-19T08:16:51.921Z,10.15
2023-05-19T08:18:24.832Z,7.32
2023-05-19T08:19:47.147Z,7.50
2023-05-19T08:21:32.036Z,8.43
2023-05-19T08:22:54.954Z,12.73
2023-05-19T08:24:17.338Z,9.65
2023-05-19T08:25:39.570Z,9.57
2023-05-19T08:27:01.988Z,7.03
2023-05-19T08:28:23.929Z,8.15
2023-05-19T08:29:46.137Z,9.45
2023-05-19T08:31:28.519Z,10.18
2023-05-19T08:32:51.510Z,7.97
2023-05-19T08:34:13.752Z,11.15
2023-05-19T08:35:35.916Z,8.70
2023-05-19T08:36:59.969Z,9.15
2023-05-19T08:38:22.404Z,6.78
2023-05-19T08:39:46.075Z,10.80
2023-05-19T08:41:32.484Z,5.85
2023-05-19T08:42:58.615Z,8.38
2023-05-19T08:44:20.910Z,13.80
2023-05-19T08:45:46.647Z,5.57
2023-05-19T08:47:14.120Z,8.10
2023-05-19T08:48:43.552Z,8.55
2023-05-19T08:50:13.232Z,5.88
2023-05-19T08:52:03.417Z,8.68
2023-05-19T08:53:33.198Z,8.82
2023-05-19T08:55:10.023Z,7.88
2023-05-19T08:56:36.472Z,9.57
2023-05-19T08:58:13.244Z,9.57
2023-05-19T09:01:41.941Z,7.47
2023-05-19T09:03:18.269Z,9.25
2023-05-19T09:04:48.153Z,12.85
2023-05-19T09:06:12.726Z,11.45
2023-05-19T09:07:37.978Z,7.43
2023-05-19T09:09:04.204Z,8.85
2023-05-19T09:10:29.335Z,8.13
2023-05-19T09:11:51.463Z,7.88
2023-05-19T09:13:13.875Z,8.23
2023-05-19T09:14:41.691Z,10.57
2023-05-19T09:16:05.544Z,9.23
2023-05-19T09:17:27.882Z,7.97
2023-05-19T09:19:13.269Z,8.40
2023-05-19T09:20:40.464Z,10.18
2023-05-19T09:22:04.904Z,9.48
2023-05-19T09:23:37.498Z,9.82
2023-05-19T09:25:01.903Z,14.32
2023-05-19T09:26:27.789Z,9.00
2023-05-19T09:28:06.066Z,12.63
2023-05-19T09:29:28.792Z,8.63
2023-05-19T09:31:10.061Z,5.97
2023-05-19T09:32:32.405Z,13.98
2023-05-19T09:34:00.619Z,6.80
2023-05-19T09:35:25.302Z,6.80
2023-05-19T09:37:00.618Z,10.05
2023-05-19T09:38:27.078Z,6.10
2023-05-19T09:39:52.313Z,9.82
2023-05-19T09:41:18.949Z,9.35
2023-05-19T09:42:49.809Z,8.85
2023-05-19T09:44:23.416Z,7.15
2023-05-19T09:45:47.479Z,12.45
2023-05-19T09:47:11.427Z,9.23
2023-05-19T09:48:34.733Z,6.32
2023-05-19T09:50:01.800Z,5.70
2023-05-19T09:51:23.959Z,7.95
2023-05-19T09:52:50.480Z,7.72
2023-05-19T09:54:47.048Z,7.88
2023-05-19T09:56:10.434Z,10.02
2023-05-19T09:57:39.538Z,7.95
2023-05-19T09:59:02.929Z,9.35
2023-05-19T10:03:29.404Z,10.07
2023-05-19T10:04:53.547Z,10.82
2023-05-19T10:06:17.828Z,14.88
2023-05-19T10:07:44.740Z,16.27
2023-05-19T10:09:07.879Z,10.43
2023-05-19T10:10:49.937Z,9.60
2023-05-19T10:12:16.222Z,8.60
2023-05-19T10:13:40.066Z,9.02
2023-05-19T10:15:02.904Z,8.57
2023-05-19T10:16:29.591Z,8.65
2023-05-19T10:17:52.831Z,10.45
2023-05-19T10:19:19.386Z,14.90
2023-05-19T10:21:35.232Z,9.80
2023-05-19T10:22:59.346Z,12.98
2023-05-19T10:24:22.162Z,10.73
2023-05-19T10:26:05.267Z,15.60
2023-05-19T10:27:29.700Z,13.85
2023-05-19T10:29:28.832Z,13.68
2023-05-19T10:31:12.177Z,16.00
2023-05-19T10:32:35.849Z,16.05
2023-05-19T10:40:22.670Z,13.32
2023-05-19T10:42:19.229Z,14.85
2023-05-19T10:44:29.238Z,14.80
2023-05-19T10:46:20.373Z,11.02
2023-05-19T10:48:32.442Z,20.35
2023-05-19T10:50:19.515Z,13.60
2023-05-19T10:51:46.871Z,11.13
2023-05-19T10:53:19.474Z,17.30
2023-05-19T10:54:44.030Z,12.82
2023-05-19T10:56:53.689Z,13.48
2023-05-19T10:58:17.605Z,10.38
2023-05-19T10:59:40.162Z,10.35
2023-05-19T11:01:02.987Z,13.60
2023-05-19T11:03:36.676Z,10.85
2023-05-19T11:05:30.313Z,11.93
2023-05-19T11:07:06.349Z,15.52
2023-05-19T11:08:34.656Z,9.30
2023-05-19T11:10:08.357Z,15.07
2023-05-19T11:11:51.301Z,11.40
2023-05-19T11:13:42.499Z,9.85
2023-05-19T11:15:05.631Z,9.82
2023-05-19T11:16:53.901Z,11.48
2023-05-19T11:23:49.886Z,12.15
2023-05-19T11:31:58.739Z,12.98
2023-05-19T11:39:56.160Z,10.65
2023-05-19T11:44:15.248Z,13.77
2023-05-19T11:45:40.998Z,11.95
2023-05-19T11:48:07.852Z,11.05
2023-05-19T11:56:42.039Z,11.65
2023-05-19T11:58:06.213Z,9.85
2023-05-19T12:00:40.230Z,14.27
2023-05-19T12:02:15.918Z,11.98
2023-05-19T12:03:38.514Z,12.52
2023-05-19T12:05:09.748Z,16.77
2023-05-19T12:06:39.704Z,12.57
2023-05-19T12:08:13.687Z,16.63
2023-05-19T12:09:38.859Z,8.48
2023-05-19T12:11:04.999Z,10.73
2023-05-19T12:12:35.589Z,9.90
2023-05-19T12:14:00.376Z,13.63
2023-05-19T12:15:23.280Z,11.32
2023-05-19T12:16:45.895Z,12.23
2023-05-19T12:34:03.558Z,13.45
2023-05-19T12:35:44.936Z,15.00
2023-05-19T12:39:52.029Z,12.48
2023-05-19T12:41:16.937Z,13.10
2023-05-19T12:43:29.019Z,15.38
2023-05-19T12:48:40.739Z,11.70
2023-05-19T13:06:50.898Z,22.58
2023-05-19T13:08:14.924Z,17.92
2023-05-19T13:10:15.822Z,21.30
2023-05-19T13:11:38.892Z,18.35
2023-05-19T13:13:03.308Z,19.05
2023-05-19T13:15:15.398Z,23.08
2023-05-19T13:17:39.132Z,18.67
2023-05-19T13:19:01.746Z,22.45
2023-05-19T13:20:25.578Z,21.42
2023-05-19T13:21:52.246Z,18.45
2023-05-19T13:23:15.889Z,17.77
2023-05-19T13:24:44.061Z,19.95
2023-05-19T13:26:09.467Z,20.70
2023-05-19T13:27:31.145Z,18.48
2023-05-19T13:28:53.809Z,19.20
2023-05-19T13:30:52.920Z,19.77
2023-05-19T13:32:19.160Z,21.20
2023-05-19T13:33:56.753Z,21.60
2023-05-19T13:38:02.122Z,20.00
2023-05-19T13:39:47.204Z,19.70
2023-05-19T13:42:45.726Z,20.58
2023-05-19T13:44:50.495Z,25.65
2023-05-19T13:48:46.574Z,19.77
2023-05-19T13:55:33.781Z,23.70
2023-05-19T14:00:44.549Z,20.25
2023-05-19T14:02:40.176Z,21.45
2023-05-19T14:07:49.806Z,19.85
2023-05-19T14:10:25.281Z,21.10
2023-05-19T14:13:42.730Z,23.30
2023-05-19T14:15:09.845Z,27.15
2023-05-19T14:16:35.482Z,21.58
2023-05-19T14:18:21.753Z,22.80
2023-05-19T14:19:44.085Z,26.77
2023-05-19T14:21:42.380Z,31.08
2023-05-19T14:23:04.522Z,22.02
2023-05-19T14:24:26.818Z,25.33
2023-05-19T14:25:49.025Z,26.73
2023-05-19T14:27:11.185Z,20.00
2023-05-19T14:28:32.387Z,22.70
2023-05-19T14:29:58.268Z,23.43
2023-05-19T14:31:29.316Z,22.38
2023-05-19T14:32:58.120Z,29.08
2023-05-19T14:34:21.237Z,22.70
2023-05-19T14:35:43.651Z,28.42
2023-05-19T14:37:06.252Z,23.90
2023-05-19T14:38:29.413Z,31.25
2023-05-19T14:39:52.109Z,25.10
2023-05-19T14:42:35.860Z,28.63
2023-05-19T14:43:59.260Z,22.67
2023-05-19T14:45:25.815Z,25.95
2023-05-19T14:46:47.154Z,24.33
2023-05-19T14:48:10.953Z,27.10
2023-05-19T14:49:33.288Z,26.73
2023-05-19T14:50:55.929Z,22.63
2023-05-19T14:52:18.060Z,23.38
2023-05-19T14:53:40.387Z,26.45
2023-05-19T14:55:02.951Z,22.63
2023-05-19T14:56:34.048Z,28.25
2023-05-19T14:58:28.478Z,25.52
2023-05-19T14:59:51.922Z,28.13
2023-05-19T15:01:15.441Z,26.75
2023-05-19T15:02:37.429Z,25.65
2023-05-19T15:04:06.058Z,28.08
2023-05-19T15:05:35.830Z,25.45
2023-05-19T15:07:10.629Z,26.00
2023-05-19T15:08:33.405Z,26.45
2023-05-19T15:09:55.651Z,25.58
2023-05-19T15:11:17.822Z,25.80
2023-05-19T15:12:40.172Z,26.35
2023-05-19T15:14:01.251Z,26.52
2023-05-19T15:15:23.548Z,30.33
2023-05-19T15:16:47.395Z,32.20
2023-05-19T15:18:09.685Z,31.35
2023-05-19T15:19:31.826Z,28.20
2023-05-19T15:20:53.890Z,28.08
2023-05-19T15:22:25.650Z,27.48
2023-05-19T15:23:50.348Z,25.20
2023-05-19T15:25:15.380Z,27.52
2023-05-19T15:26:41.017Z,31.95
2023-05-19T15:28:04.023Z,31.20
2023-05-19T15:29:26.028Z,30.75
2023-05-19T15:30:48.424Z,33.63
2023-05-19T15:33:37.509Z,28.65
2023-05-19T15:34:59.621Z,29.05
2023-05-19T15:36:27.539Z,29.10
2023-05-19T15:37:51.815Z,32.65
2023-05-19T15:39:37.550Z,34.17
2023-05-19T15:41:00.072Z,30.35
2023-05-19T15:42:22.286Z,31.17
2023-05-19T15:45:10.625Z,29.63
2023-05-19T15:46:41.535Z,33.97
2023-05-19T15:48:09.081Z,31.08
2023-05-19T15:49:32.289Z,30.20
2023-05-19T15:50:55.025Z,25.20
2023-05-19T15:52:17.473Z,33.03
2023-05-19T15:53:42.913Z,27.35
2023-05-19T15:55:04.427Z,29.23
2023-05-19T15:56:26.832Z,30.52
2023-05-19T15:57:49.039Z,32.35
2023-05-19T15:59:10.179Z,29.45
2023-05-19T16:00:45.549Z,26.00
2023-05-19T16:02:08.288Z,30.17
2023-05-19T16:03:31.928Z,29.67
2023-05-19T16:04:54.169Z,31.60
2023-05-19T16:06:16.523Z,26.13
2023-05-19T16:07:42.325Z,25.02
2023-05-19T16:09:04.457Z,30.42
2023-05-19T16:10:26.522Z,25.85
2023-05-19T16:11:49.806Z,27.95
2023-05-19T16:13:12.045Z,33.72
2023-05-19T16:15:59.089Z,30.85
2023-05-19T16:17:20.084Z,28.10
2023-05-19T16:18:50.216Z,27.05
2023-05-19T16:20:13.016Z,24.85
2023-05-19T16:21:33.939Z,25.48
2023-05-19T16:22:58.579Z,29.60
2023-05-19T16:24:20.766Z,32.60
2023-05-19T16:25:45.607Z,29.83
2023-05-19T16:28:31.360Z,27.52
2023-05-19T16:29:54.876Z,25.63
2023-05-19T16:31:17.172Z,26.75
2023-05-19T16:32:39.716Z,23.10
2023-05-19T16:34:19.940Z,25.63
2023-05-19T16:35:42.056Z,22.85
2023-05-19T16:37:13.840Z,24.05
2023-05-19T16:38:35.960Z,25.27
2023-05-19T16:39:57.296Z,24.02
2023-05-19T16:41:19.430Z,25.50
2023-05-19T16:42:48.693Z,29.10
2023-05-19T16:44:14.761Z,25.23
2023-05-19T16:45:36.150Z,23.80
2023-05-19T16:47:01.331Z,24.73
2023-05-19T16:50:00.472Z,23.52
2023-05-19T16:51:27.754Z,27.42
2023-05-19T16:52:50.052Z,20.85
2023-05-19T16:54:12.430Z,23.38
2023-05-19T16:56:56.128Z,26.07
2023-05-19T16:58:17.472Z,25.80
2023-05-19T16:59:49.865Z,23.98
2023-05-19T17:01:17.494Z,25.15
2023-05-19T17:02:41.215Z,25.02
2023-05-19T17:04:21.659Z,26.95
2023-05-19T17:05:45.113Z,24.38
2023-05-19T17:07:07.225Z,29.67
2023-05-19T17:08:29.558Z,24.17
2023-05-19T17:09:53.937Z,23.88
2023-05-19T17:11:17.414Z,24.15
2023-05-19T17:12:39.779Z,22.35
2023-05-19T17:14:02.148Z,25.08
2023-05-19T17:15:24.249Z,25.33
2023-05-19T17:16:46.805Z,25.23
2023-05-19T17:18:08.953Z,28.90
2023-05-19T17:19:31.647Z,27.02
2023-05-19T17:20:55.609Z,27.98
2023-05-19T17:22:17.005Z,25.55
2023-05-19T17:23:39.405Z,24.63
2023-05-19T17:25:13.894Z,25.33
2023-05-19T17:26:45.333Z,27.02
2023-05-19T17:28:18.384Z,28.85
2023-05-19T17:29:42.665Z,24.67
2023-05-19T17:31:13.093Z,25.08
2023-05-19T17:32:39.533Z,23.27
2023-05-19T17:34:15.470Z,19.45
2023-05-19T17:35:39.092Z,27.33
2023-05-19T17:37:06.232Z,20.00
2023-05-19T17:38:28.742Z,24.48
2023-05-19T17:39:51.149Z,24.30
2023-05-19T17:41:22.053Z,27.73
2023-05-19T17:42:44.538Z,26.35
2023-05-19T17:44:07.585Z,20.38
2023-05-19T17:45:57.262Z,24.08
2023-05-19T17:47:23.803Z,25.48
2023-05-19T17:48:48.837Z,25.85
2023-05-19T17:50:12.245Z,22.00
2023-05-19T17:51:34.796Z,24.67
2023-05-19T17:52:58.964Z,27.52
2023-05-19T17:54:26.335Z,28.35
2023-05-19T17:55:52.668Z,24.85
2023-05-19T17:57:18.655Z,29.80
2023-05-19T17:58:41.592Z,27.10
2023-05-19T18:00:05.008Z,26.85
2023-05-19T18:01:30.980Z,30.25
2023-05-19T18:03:06.213Z,26.20
2023-05-19T18:04:35.424Z,29.17
2023-05-19T18:06:02.197Z,33.28
2023-05-19T18:07:25.473Z,27.85
2023-05-19T18:08:51.633Z,29.00
2023-05-19T18:10:16.944Z,25.48
2023-05-19T18:11:39.008Z,26.40
2023-05-19T18:14:23.003Z,29.45
2023-05-19T18:15:45.335Z,27.15
2023-05-19T18:17:12.218Z,27.70
2023-05-19T18:18:37.410Z,27.60
2023-05-19T18:19:59.468Z,26.70
2023-05-19T18:21:21.630Z,23.88
2023-05-19T18:22:44.118Z,29.30
2023-05-19T18:24:08.471Z,27.92
2023-05-19T18:25:31.516Z,26.95
2023-05-19T18:26:56.305Z,30.08
2023-05-19T18:28:18.705Z,30.35
2023-05-19T18:29:40.855Z,27.30
2023-05-19T18:31:08.719Z,29.77
2023-05-19T18:32:31.096Z,30.83
2023-05-19T18:33:53.319Z,27.60
2023-05-19T18:35:16.064Z,32.40
2023-05-19T18:36:38.132Z,29.48
2023-05-19T18:38:00.194Z,27.23
2023-05-19T18:39:29.263Z,28.70
2023-05-19T18:40:56.823Z,26.10
2023-05-19T18:42:19.451Z,25.58
2023-05-19T18:43:41.551Z,29.00
2023-05-19T18:45:03.849Z,24.17
2023-05-19T18:46:26.566Z,26.45
2023-05-19T18:47:49.036Z,27.33
2023-05-19T18:49:13.771Z,26.58
2023-05-19T18:50:41.350Z,26.40
2023-05-19T18:52:04.979Z,27.42
2023-05-19T18:53:27.249Z,29.13
2023-05-19T18:54:51.011Z,32.05
2023-05-19T18:56:15.372Z,28.08
2023-05-19T18:57:38.042Z,27.23
2023-05-19T18:59:00.103Z,27.60
2023-05-19T19:00:22.503Z,29.77
2023-05-19T19:01:46.953Z,26.83
2023-05-19T19:03:10.464Z,28.23
2023-05-19T19:04:35.461Z,31.30
2023-05-19T19:05:58.830Z,29.52
2023-05-19T19:07:21.225Z,27.00
2023-05-19T19:08:43.704Z,25.55
2023-05-19T19:10:18.853Z,29.05
2023-05-19T19:11:41.889Z,30.60
2023-05-19T19:13:02.874Z,25.65
2023-05-19T19:14:25.190Z,26.10
2023-05-19T19:15:46.994Z,27.27
2023-05-19T19:17:09.762Z,27.83
2023-05-19T19:18:34.786Z,30.10
2023-05-19T19:19:57.397Z,26.00
2023-05-19T19:21:23.057Z,25.38
2023-05-19T19:22:47.255Z,28.48
2023-05-19T19:24:09.779Z,27.80
2023-05-19T19:25:37.711Z,28.45
2023-05-19T19:26:59.070Z,26.77
2023-05-19T19:28:22.277Z,27.85
2023-05-19T19:29:47.476Z,26.88
2023-05-19T19:31:15.545Z,26.88
2023-05-19T19:32:38.016Z,26.10
2023-05-19T19:34:25.642Z,29.95
2023-05-19T19:35:54.384Z,32.53
2023-05-19T19:37:22.632Z,27.20
2023-05-19T19:38:45.062Z,31.80
2023-05-19T19:40:08.700Z,25.67
2023-05-19T19:41:33.560Z,27.67
2023-05-19T19:43:07.130Z,29.80
2023-05-19T19:44:29.659Z,33.10
2023-05-19T19:46:00.771Z,26.02
2023-05-19T19:47:23.465Z,28.17
2023-05-19T19:48:48.417Z,30.33
2023-05-19T19:50:18.370Z,30.73
2023-05-19T19:51:40.624Z,36.40
2023-05-19T19:53:03.105Z,30.15
2023-05-19T19:54:25.531Z,33.92
2023-05-19T19:57:11.632Z,31.40
2023-05-19T19:58:33.996Z,30.85
2023-05-19T20:01:28.051Z,31.15
2023-05-19T20:03:02.683Z,29.08
2023-05-19T20:04:28.462Z,33.78
2023-05-19T20:05:51.535Z,30.75
2023-05-19T20:07:14.357Z,32.65
2023-05-19T20:08:37.658Z,32.50
2023-05-19T20:10:00.274Z,31.02
2023-05-19T20:11:24.988Z,29.50
2023-05-19T20:12:54.510Z,29.65
2023-05-19T20:14:26.699Z,33.53
2023-05-19T20:15:50.160Z,33.03
2023-05-19T20:17:12.582Z,29.90
2023-05-19T20:18:34.992Z,34.95
2023-05-19T20:20:00.256Z,29.58
2023-05-19T20:21:22.565Z,30.30
2023-05-19T20:22:46.649Z,28.20
2023-05-19T20:24:08.942Z,35.45
2023-05-19T20:25:57.867Z,29.90
2023-05-19T20:27:25.628Z,30.73
2023-05-19T20:28:49.428Z,33.92
2023-05-19T20:30:11.808Z,31.83
2023-05-19T20:31:34.354Z,31.75
2023-05-19T20:32:56.473Z,29.83
2023-05-19T20:34:18.912Z,31.83
2023-05-19T20:35:41.473Z,32.75
2023-05-19T20:37:03.933Z,31.27
2023-05-19T20:38:26.461Z,29.85
2023-05-19T20:39:53.668Z,29.60
2023-05-19T20:41:16.509Z,32.80
2023-05-19T20:42:41.116Z,32.47
2023-05-19T20:44:04.663Z,32.35
2023-05-19T20:45:32.913Z,34.45
2023-05-19T20:47:03.231Z,31.02
2023-05-19T20:48:25.799Z,33.58
2023-05-19T20:50:07.485Z,31.95
2023-05-19T20:51:32.930Z,31.02
2023-05-19T20:52:59.794Z,35.10
2023-05-19T20:54:21.849Z,27.60